createdAt,value
2024-02-29T00:00:13.249Z,97903.91
2024-02-29T00:02:42.561Z,97897.66
2024-02-29T00:05:13.748Z,97891.75
2024-02-29T00:07:41.802Z,97900.38
2024-02-29T00:10:10.359Z,97887.94
2024-02-29T00:12:39.888Z,97885.53
2024-02-29T00:15:08.569Z,97880.09
2024-02-29T00:17:36.464Z,97873.91
2024-02-29T00:20:10.009Z,97871.50
2024-02-29T00:22:37.788Z,97876.09
2024-02-29T00:25:06.189Z,97867.16
2024-02-29T00:27:33.998Z,97860.97
2024-02-29T00:30:01.456Z,97856.66
2024-02-29T00:32:29.188Z,97862.06
2024-02-29T00:34:56.630Z,97860.41
2024-02-29T00:37:25.724Z,97856.09
2024-02-29T00:39:53.375Z,97860.41
2024-02-29T00:42:20.757Z,97859.34
2024-02-29T00:44:48.381Z,97859.03
2024-02-29T00:47:15.935Z,97864.16
2024-02-29T00:49:43.559Z,97863.66
2024-02-29T00:52:10.994Z,97861.47
2024-02-29T00:54:40.079Z,97861.47
2024-02-29T00:57:08.054Z,97862.56
2024-02-29T00:59:35.679Z,97866.09
2024-02-29T01:02:04.753Z,97859.84
2024-02-29T01:04:32.382Z,97849.03
2024-02-29T01:07:00.023Z,97840.09
2024-02-29T01:09:28.846Z,97840.41
2024-02-29T01:11:58.169Z,97842.81
2024-02-29T01:14:26.992Z,97838.50
2024-02-29T01:16:55.317Z,97844.72
2024-02-29T01:19:22.957Z,97838.50
2024-02-29T01:21:50.598Z,97845.00
2024-02-29T01:24:17.999Z,97830.66
2024-02-29T01:26:45.531Z,97827.97
2024-02-29T01:29:14.564Z,97815.53
2024-02-29T01:31:42.160Z,97810.13
2024-02-29T01:34:09.785Z,97812.03
2024-02-29T01:36:37.432Z,97814.72
2024-02-29T01:39:05.389Z,97809.59
2024-02-29T01:41:33.034Z,97801.50
2024-02-29T01:44:00.438Z,97808.53
2024-02-29T01:46:31.220Z,97806.91
2024-02-29T01:48:59.615Z,97794.47
2024-02-29T01:51:27.692Z,97799.09
2024-02-29T01:53:55.338Z,97782.06
2024-02-29T01:56:23.348Z,97781.25
2024-02-29T01:58:50.929Z,97785.88
2024-02-29T02:01:18.686Z,97782.06
2024-02-29T02:03:49.039Z,97778.53
2024-02-29T02:06:16.738Z,97779.63
2024-02-29T02:08:44.210Z,97776.13
2024-02-29T02:11:11.946Z,97776.13
2024-02-29T02:13:39.924Z,97777.22
2024-02-29T02:16:09.187Z,97781.00
2024-02-29T02:18:37.217Z,97767.50
2024-02-29T02:21:06.435Z,97765.09
2024-02-29T02:23:34.135Z,97763.19
2024-02-29T02:26:02.004Z,97763.19
2024-02-29T02:28:30.511Z,97765.38
2024-02-29T02:30:58.158Z,97763.75
2024-02-29T02:33:25.572Z,97768.06
2024-02-29T02:35:53.172Z,97757.25
2024-02-29T02:38:22.589Z,97751.84
2024-02-29T02:40:50.190Z,97751.84
2024-02-29T02:43:17.589Z,97743.44
2024-02-29T02:45:45.164Z,97741.56
2024-02-29T02:48:12.616Z,97748.56
2024-02-29T02:50:40.410Z,97748.56
2024-02-29T02:53:09.055Z,97744.78
2024-02-29T02:55:38.051Z,97742.06
2024-02-29T02:58:05.839Z,97733.97
2024-02-29T03:00:33.705Z,97736.66
2024-02-29T03:03:02.853Z,97729.66
2024-02-29T03:05:30.850Z,97728.56
2024-02-29T03:07:59.026Z,97725.84
2024-02-29T03:10:26.834Z,97729.66
2024-02-29T03:12:55.702Z,97720.72
2024-02-29T03:15:23.234Z,97725.34
2024-02-29T03:17:50.779Z,97723.13
2024-02-29T03:20:18.662Z,97721.53
2024-02-29T03:22:46.970Z,97725.34
2024-02-29T03:25:14.739Z,97714.53
2024-02-29T03:27:42.600Z,97711.00
2024-02-29T03:30:12.125Z,97719.13
2024-02-29T03:32:39.800Z,97715.59
2024-02-29T03:35:07.997Z,97708.59
2024-02-29T03:37:35.608Z,97709.69
2024-02-29T03:40:03.282Z,97711.28
2024-02-29T03:42:31.047Z,97708.88
2024-02-29T03:44:58.935Z,97706.16
2024-02-29T03:47:27.764Z,97703.47
2024-02-29T03:49:55.306Z,97701.84
2024-02-29T03:52:22.892Z,97703.72
2024-02-29T03:54:50.461Z,97711.81
2024-02-29T03:57:18.157Z,97699.41
2024-02-29T03:59:48.336Z,97694.00
2024-02-29T04:02:16.286Z,97693.47
2024-02-29T04:04:46.116Z,97689.69
2024-02-29T04:07:13.745Z,97691.59
2024-02-29T04:09:41.183Z,97698.88
2024-02-29T04:12:09.192Z,97684.56
2024-02-29T04:14:39.944Z,97693.47
2024-02-29T04:17:07.810Z,97686.47
2024-02-29T04:19:35.345Z,97686.75
2024-02-29T04:22:04.475Z,97686.75
2024-02-29T04:24:32.077Z,97683.25
2024-02-29T04:26:59.716Z,97678.91
2024-02-29T04:29:27.120Z,97681.63
2024-02-29T04:31:55.040Z,97685.97
2024-02-29T04:34:22.783Z,97687.03
2024-02-29T04:36:50.504Z,97684.31
2024-02-29T04:39:19.842Z,97676.22
2024-02-29T04:41:47.471Z,97684.03
2024-02-29T04:44:15.127Z,97681.06
2024-02-29T04:46:42.610Z,97683.75
2024-02-29T04:49:10.321Z,97677.53
2024-02-29T04:51:37.936Z,97682.66
2024-02-29T04:54:05.562Z,97679.94
2024-02-29T04:56:36.565Z,97680.78
2024-02-29T04:59:05.712Z,97684.84
2024-02-29T05:01:33.379Z,97683.47
2024-02-29T05:04:00.982Z,97678.34
2024-02-29T05:06:29.128Z,97671.34
2024-02-29T05:08:56.851Z,97675.16
2024-02-29T05:11:24.584Z,97675.94
2024-02-29T05:13:53.536Z,97673.50
2024-02-29T05:16:21.921Z,97664.34
2024-02-29T05:18:49.647Z,97660.00
2024-02-29T05:21:17.446Z,97658.94
2024-02-29T05:23:45.040Z,97651.09
2024-02-29T05:26:12.670Z,97642.19
2024-02-29T05:28:40.146Z,97641.31
2024-02-29T05:31:09.350Z,97637.81
2024-02-29T05:33:38.932Z,97642.09
2024-02-29T05:36:07.433Z,97641.31
2024-02-29T05:38:35.098Z,97639.13
2024-02-29T05:41:03.414Z,97639.94
2024-02-29T05:43:34.661Z,97645.34
2024-02-29T05:46:03.776Z,97637.75
2024-02-29T05:48:36.347Z,97635.63
2024-02-29T05:51:04.809Z,97635.09
2024-02-29T05:53:32.469Z,97633.44
2024-02-29T05:55:59.837Z,97634.81
2024-02-29T05:58:31.855Z,97625.88
2024-02-29T06:00:59.838Z,97628.59
2024-02-29T06:03:27.535Z,97630.78
2024-02-29T06:05:56.644Z,97627.84
2024-02-29T06:08:24.270Z,97622.75
2024-02-29T06:10:51.751Z,97621.94
2024-02-29T06:13:19.384Z,97611.97
2024-02-29T06:15:46.852Z,97615.53
2024-02-29T06:18:15.391Z,97613.66
2024-02-29T06:20:43.648Z,97611.75
2024-02-29T06:23:12.614Z,97609.28
2024-02-29T06:25:41.333Z,97609.81
2024-02-29T06:28:08.963Z,97604.41
2024-02-29T06:30:36.680Z,97612.22
2024-02-29T06:33:04.354Z,97608.13
2024-02-29T06:35:32.282Z,97611.63
2024-02-29T06:37:59.984Z,97610.84
2024-02-29T06:40:29.121Z,97598.66
2024-02-29T06:42:57.300Z,97604.88
2024-02-29T06:45:25.122Z,97604.88
2024-02-29T06:47:52.832Z,97604.56
2024-02-29T06:50:20.791Z,97591.84
2024-02-29T06:52:49.160Z,97597.25
2024-02-29T06:55:17.878Z,97598.84
2024-02-29T06:57:48.646Z,97593.44
2024-02-29T07:00:16.866Z,97588.03
2024-02-29T07:02:44.496Z,97595.88
2024-02-29T07:05:12.337Z,97587.47
2024-02-29T07:07:39.886Z,97585.34
2024-02-29T07:10:08.296Z,97585.53
2024-02-29T07:12:35.946Z,97577.16
2024-02-29T07:15:05.262Z,97571.75
2024-02-29T07:17:32.858Z,97568.47
2024-02-29T07:20:00.279Z,97567.34
2024-02-29T07:22:27.884Z,97566.25
2024-02-29T07:24:55.351Z,97567.88
2024-02-29T07:27:23.285Z,97561.16
2024-02-29T07:29:50.878Z,97557.41
2024-02-29T07:32:19.695Z,97560.09
2024-02-29T07:34:47.402Z,97547.97
2024-02-29T07:37:14.860Z,97563.91
2024-02-29T07:39:42.531Z,97548.50
2024-02-29T07:42:10.529Z,97549.28
2024-02-29T07:44:38.219Z,97552.81
2024-02-29T07:47:05.854Z,97550.69
2024-02-29T07:49:34.659Z,97547.69
2024-02-29T07:52:02.482Z,97543.09
2024-02-29T07:54:30.197Z,97545.53
2024-02-29T07:56:58.976Z,97546.59
2024-02-29T07:59:26.795Z,97550.63
2024-02-29T08:01:54.613Z,97553.06
2024-02-29T08:04:22.928Z,97544.34
2024-02-29T08:06:51.949Z,97542.66
2024-02-29T08:09:19.678Z,97539.16
2024-02-29T08:11:47.292Z,97541.88
2024-02-29T08:14:17.506Z,97541.88
2024-02-29T08:16:46.553Z,97542.66
2024-02-29T08:19:14.180Z,97531.84
2024-02-29T08:21:42.097Z,97549.41
2024-02-29T08:24:11.296Z,97527.53
2024-02-29T08:26:39.266Z,97527.31
2024-02-29T08:29:06.685Z,97525.94
2024-02-29T08:31:34.459Z,97514.59
2024-02-29T08:34:02.210Z,97518.09
2024-02-29T08:36:30.671Z,97517.28
2024-02-29T08:38:59.635Z,97513.53
2024-02-29T08:41:29.307Z,97511.09
2024-02-29T08:43:57.073Z,97504.88
2024-02-29T08:46:24.758Z,97512.69
2024-02-29T08:48:52.425Z,97509.47
2024-02-29T08:51:20.119Z,97511.59
2024-02-29T08:53:47.707Z,97506.78
2024-02-29T08:56:16.181Z,97501.69
2024-02-29T08:58:45.278Z,97509.25
2024-02-29T09:01:12.954Z,97503.66
2024-02-29T09:03:40.621Z,97503.03
2024-02-29T09:06:08.056Z,97499.25
2024-02-29T09:08:35.745Z,97492.47
2024-02-29T09:11:04.853Z,97495.66
2024-02-29T09:13:35.750Z,97485.66
2024-02-29T09:16:05.898Z,97485.13
2024-02-29T09:18:35.154Z,97485.66
2024-02-29T09:21:02.786Z,97476.44
2024-02-29T09:23:30.429Z,97472.66
2024-02-29T09:25:58.135Z,97464.25
2024-02-29T09:28:25.798Z,97461.53
2024-02-29T09:30:54.988Z,97462.06
2024-02-29T09:33:25.992Z,97461.78
2024-02-29T09:35:58.703Z,97462.06
2024-02-29T09:38:26.590Z,97452.06
2024-02-29T09:41:03.212Z,97446.84
2024-02-29T09:43:40.525Z,97444.44
2024-02-29T09:46:11.444Z,97445.53
2024-02-29T09:48:41.478Z,97443.94
2024-02-29T09:51:16.186Z,97437.34
2024-02-29T09:53:44.172Z,97435.22
2024-02-29T09:56:11.746Z,97434.16
2024-02-29T09:58:40.343Z,97425.78
2024-02-29T10:01:10.896Z,97422.41
2024-02-29T10:03:41.290Z,97412.06
2024-02-29T10:06:09.373Z,97407.84
2024-02-29T10:08:37.232Z,97410.13
2024-02-29T10:11:05.349Z,97405.59
2024-02-29T10:13:40.214Z,97397.78
2024-02-29T10:16:09.474Z,97386.97
2024-02-29T10:18:38.564Z,97389.69
2024-02-29T10:21:14.592Z,97383.47
2024-02-29T10:23:43.501Z,97390.19
2024-02-29T10:26:11.228Z,97378.84
2024-02-29T10:28:38.889Z,97383.69
2024-02-29T10:31:08.679Z,97378.28
2024-02-29T10:33:39.678Z,97381.06
2024-02-29T10:36:12.785Z,97379.25
2024-02-29T10:38:40.554Z,97378.75
2024-02-29T10:41:09.811Z,97367.13
2024-02-29T10:43:39.009Z,97356.91
2024-02-29T10:46:08.233Z,97363.91
2024-02-29T10:48:48.071Z,97345.25
2024-02-29T10:51:27.460Z,97346.06
2024-02-29T10:54:07.302Z,97337.16
2024-02-29T10:56:37.241Z,97337.47
2024-02-29T10:59:06.522Z,97336.66
2024-02-29T11:01:35.755Z,97327.38
2024-02-29T11:04:04.641Z,97322.75
2024-02-29T11:06:39.110Z,97309.03
2024-02-29T11:09:09.770Z,97323.28
2024-02-29T11:11:38.406Z,97320.56
2024-02-29T11:14:10.470Z,97319.47
2024-02-29T11:16:40.439Z,97317.56
2024-02-29T11:19:11.314Z,97294.13
2024-02-29T11:21:40.434Z,97294.00
2024-02-29T11:24:08.942Z,97299.66
2024-02-29T11:26:37.593Z,97281.59
2024-02-29T11:29:14.852Z,97285.31
2024-02-29T11:31:44.312Z,97277.78
2024-02-29T11:34:12.791Z,97278.69
2024-02-29T11:36:42.119Z,97268.78
2024-02-29T11:39:11.007Z,97259.38
2024-02-29T11:41:39.374Z,97261.78
2024-02-29T11:44:07.205Z,97262.25
2024-02-29T11:46:34.838Z,97257.97
2024-02-29T11:49:02.567Z,97249.91
2024-02-29T11:51:30.447Z,97240.50
2024-02-29T11:53:59.801Z,97239.72
2024-02-29T11:56:27.520Z,97237.31
2024-02-29T11:58:55.937Z,97233.31
2024-02-29T12:01:24.803Z,97221.28
2024-02-29T12:03:53.211Z,97215.59
2024-02-29T12:06:21.391Z,97218.50
2024-02-29T12:08:49.707Z,97212.47
2024-02-29T12:11:19.121Z,97203.28
2024-02-29T12:13:47.342Z,97204.47
2024-02-29T12:16:16.886Z,97195.88
2024-02-29T12:18:46.533Z,97193.66
2024-02-29T12:21:14.527Z,97190.16
2024-02-29T12:23:42.105Z,97183.63
2024-02-29T12:26:10.552Z,97186.94
2024-02-29T12:28:40.389Z,97184.06
2024-02-29T12:31:09.758Z,97177.25
2024-02-29T12:33:38.385Z,97168.91
2024-02-29T12:36:06.692Z,97170.84
2024-02-29T12:38:35.261Z,97166.03
2024-02-29T12:41:03.758Z,97163.31
2024-02-29T12:43:31.478Z,97163.63
2024-02-29T12:46:00.738Z,97159.63
2024-02-29T12:48:28.337Z,97153.09
2024-02-29T12:50:56.112Z,97151.22
2024-02-29T12:53:23.905Z,97150.69
2024-02-29T12:55:51.978Z,97138.88
2024-02-29T12:58:19.680Z,97147.59
2024-02-29T13:00:47.289Z,97134.06
2024-02-29T13:03:16.815Z,97137.59
2024-02-29T13:05:45.498Z,97130.59
2024-02-29T13:08:13.077Z,97134.88
2024-02-29T13:10:41.121Z,97128.78
2024-02-29T13:13:10.697Z,97122.06
2024-02-29T13:15:39.033Z,97117.13
2024-02-29T13:18:06.830Z,97121.53
2024-02-29T13:20:35.686Z,97109.31
2024-02-29T13:23:03.283Z,97096.34
2024-02-29T13:25:30.979Z,97088.50
2024-02-29T13:27:58.561Z,97092.31
2024-02-29T13:30:26.485Z,97093.50
2024-02-29T13:32:54.050Z,97072.47
2024-02-29T13:35:21.812Z,97087.09
2024-02-29T13:37:51.021Z,97078.47
2024-02-29T13:40:19.458Z,97073.09
2024-02-29T13:42:47.849Z,97066.59
2024-02-29T13:45:15.907Z,97075.78
2024-02-29T13:47:48.633Z,97066.09
2024-02-29T13:50:16.778Z,97062.91
2024-02-29T13:52:44.585Z,97061.28
2024-02-29T13:55:13.872Z,97059.19
2024-02-29T13:57:41.748Z,97045.19
2024-02-29T14:00:10.441Z,97039.25
2024-02-29T14:02:41.777Z,97040.66
2024-02-29T14:05:09.492Z,97032.84
2024-02-29T14:07:37.450Z,97033.97
2024-02-29T14:10:07.860Z,97025.56
2024-02-29T14:12:38.836Z,97013.75
2024-02-29T14:15:07.620Z,97025.25
2024-02-29T14:17:36.958Z,97019.06
2024-02-29T14:20:05.618Z,97007.75
2024-02-29T14:22:33.445Z,97012.34
2024-02-29T14:25:01.073Z,96997.75
2024-02-29T14:27:28.595Z,97002.06
2024-02-29T14:29:58.119Z,97003.66
2024-02-29T14:32:25.890Z,97001.44
2024-02-29T14:34:53.303Z,97002.47
2024-02-29T14:37:21.021Z,96999.44
2024-02-29T14:39:48.531Z,96990.41
2024-02-29T14:42:16.147Z,96988.81
2024-02-29T15:40:19.289Z,96932.63
2024-02-29T15:42:47.168Z,96922.63
2024-02-29T15:45:16.014Z,96926.94
2024-02-29T15:47:43.764Z,96919.13
2024-02-29T15:50:11.365Z,96922.63
2024-02-29T15:52:39.048Z,96916.44
2024-02-29T15:55:07.774Z,96916.44
2024-02-29T15:57:37.516Z,96921.03
2024-02-29T16:00:06.700Z,96908.84
2024-02-29T16:02:40.302Z,96908.72
2024-02-29T16:05:08.447Z,96910.31
2024-02-29T16:07:36.184Z,96920.72
2024-02-29T16:10:04.620Z,96906.56
2024-02-29T16:12:32.731Z,96903.56
2024-02-29T16:15:01.894Z,96905.97
2024-02-29T16:17:29.653Z,96897.56
2024-02-29T16:19:57.423Z,96892.16
2024-02-29T16:22:24.860Z,96899.16
2024-02-29T16:24:52.563Z,96894.25
2024-02-29T16:27:20.122Z,96893.13
2024-02-29T16:29:47.708Z,96884.25
2024-02-29T16:32:16.533Z,96888.72
2024-02-29T16:34:44.182Z,96887.13
2024-02-29T16:37:11.773Z,96876.84
2024-02-29T16:39:39.612Z,96876.00
2024-02-29T16:42:07.940Z,96874.38
2024-02-29T16:44:35.593Z,96880.25
2024-02-29T16:47:03.131Z,96873.34
2024-02-29T16:49:32.329Z,96864.47
2024-02-29T16:52:00.080Z,96867.59
2024-02-29T16:54:27.841Z,96858.84
2024-02-29T16:56:55.739Z,96863.81
2024-02-29T16:59:23.386Z,96866.38
2024-02-29T17:01:51.042Z,96866.84
2024-02-29T17:04:18.748Z,96862.88
2024-02-29T17:06:48.127Z,96874.53
2024-02-29T17:09:16.206Z,96870.69
2024-02-29T17:11:43.863Z,96859.53
2024-02-29T17:14:11.287Z,96860.19
2024-02-29T17:16:39.176Z,96863.81
2024-02-29T17:19:07.230Z,96860.97
2024-02-29T17:21:35.547Z,96865.25
2024-02-29T17:24:06.122Z,96867.19
2024-02-29T17:26:35.039Z,96856.81
2024-02-29T17:29:02.649Z,96859.38
2024-02-29T17:31:30.082Z,96863.69
2024-02-29T17:33:57.703Z,96855.88
2024-02-29T17:36:25.476Z,96847.69
2024-02-29T17:38:53.092Z,96849.31
2024-02-29T17:41:21.974Z,96844.03
2024-02-29T17:43:49.556Z,96844.22
2024-02-29T17:46:17.427Z,96838.78
2024-02-29T17:48:45.386Z,96831.91
2024-02-29T17:51:12.977Z,96837.81
2024-02-29T17:53:40.413Z,96830.16
2024-02-29T17:56:07.995Z,96828.59
2024-02-29T17:58:37.700Z,96832.41
2024-02-29T18:01:05.576Z,96821.38
2024-02-29T18:03:33.283Z,96822.66
2024-02-29T18:06:00.733Z,96819.16
2024-02-29T18:08:29.157Z,96814.22
2024-02-29T18:10:56.767Z,96818.50
2024-02-29T18:13:24.425Z,96812.13
2024-02-29T18:15:53.711Z,96806.38
2024-02-29T18:18:21.449Z,96802.56
2024-02-29T18:20:49.525Z,96798.91
2024-02-29T18:23:17.241Z,96792.03
2024-02-29T18:25:45.180Z,96787.88
2024-02-29T18:28:12.959Z,96780.53
2024-02-29T18:30:41.442Z,96774.16
2024-02-29T18:33:10.573Z,96778.63
2024-02-29T18:35:38.913Z,96781.84
2024-02-29T18:38:06.664Z,96773.66
2024-02-29T18:40:34.210Z,96773.03
2024-02-29T18:43:02.019Z,96774.78
2024-02-29T18:45:29.681Z,96773.34
2024-02-29T18:47:57.719Z,96756.88
2024-02-29T18:50:26.731Z,96750.31
2024-02-29T18:52:54.581Z,96742.47
2024-02-29T18:55:24.149Z,96743.63
2024-02-29T18:57:52.277Z,96745.34
2024-02-29T19:00:20.463Z,96744.56
2024-02-29T19:02:48.173Z,96750.63
2024-02-29T19:05:15.891Z,96736.88
2024-02-29T19:07:45.103Z,96738.00
2024-02-29T19:10:14.470Z,96737.22
2024-02-29T19:12:42.488Z,96733.56
2024-02-29T19:15:10.939Z,96730.38
2024-02-29T19:17:38.872Z,96728.25
2024-02-29T19:20:11.715Z,96720.22
2024-02-29T19:22:39.790Z,96715.13
2024-02-29T19:25:09.598Z,96714.03
2024-02-29T19:27:37.404Z,96719.19
2024-02-29T19:30:06.985Z,96717.13
2024-02-29T19:32:34.685Z,96716.72
2024-02-29T19:35:04.184Z,96701.06
2024-02-29T19:37:31.983Z,96713.31
2024-02-29T19:39:59.787Z,96711.78
2024-02-29T19:42:28.817Z,96705.44
2024-02-29T19:44:59.293Z,96699.91
2024-02-29T19:47:27.171Z,96708.78
2024-02-29T19:49:54.865Z,96691.00
2024-02-29T19:52:22.489Z,96688.78
2024-02-29T19:54:50.187Z,96689.59
2024-02-29T19:57:18.055Z,96689.00
2024-02-29T19:59:47.142Z,96699.72
2024-02-29T20:02:15.106Z,96696.03
2024-02-29T20:04:42.791Z,96701.22
2024-02-29T20:07:11.088Z,96694.97
2024-02-29T20:09:39.744Z,96694.38
2024-02-29T20:12:07.854Z,96698.88
2024-02-29T20:14:35.463Z,96689.66
2024-02-29T20:17:04.849Z,96687.56
2024-02-29T20:19:33.561Z,96691.00
2024-02-29T20:22:04.256Z,96694.31
2024-02-29T20:24:32.089Z,96696.91
2024-02-29T20:26:59.770Z,96692.59
2024-02-29T20:29:27.428Z,96691.84
2024-02-29T20:31:55.092Z,96692.59
2024-02-29T20:34:24.205Z,96692.09
2024-02-29T20:36:52.166Z,96697.00
2024-02-29T20:39:20.462Z,96696.06
2024-02-29T20:41:48.146Z,96703.94
2024-02-29T20:44:15.954Z,96699.34
2024-02-29T20:46:44.081Z,96700.88
2024-02-29T20:49:11.747Z,96701.94
2024-02-29T20:51:40.885Z,96707.53
2024-02-29T20:54:08.531Z,96704.66
2024-02-29T20:56:35.960Z,96693.53
2024-02-29T20:59:05.197Z,96700.59
2024-02-29T21:01:32.916Z,96699.44
2024-02-29T21:04:00.743Z,96697.94
2024-02-29T21:06:28.629Z,96696.34
2024-02-29T21:08:57.682Z,96701.00
2024-02-29T21:11:25.395Z,96691.81
2024-02-29T21:13:54.464Z,96690.06
2024-02-29T21:16:22.126Z,96706.28
2024-02-29T21:18:49.822Z,96705.81
2024-02-29T21:21:19.842Z,96703.94
2024-02-29T21:23:47.980Z,96699.03
2024-02-29T21:26:17.152Z,96703.53
2024-02-29T21:28:47.552Z,96698.00
2024-02-29T21:31:15.870Z,96698.66
2024-02-29T21:33:43.568Z,96702.34
2024-02-29T21:36:11.545Z,96708.38
2024-02-29T21:38:39.179Z,96706.16
2024-02-29T21:41:06.798Z,96703.78
2024-02-29T21:43:35.923Z,96702.34
2024-02-29T21:46:03.705Z,96699.66
2024-02-29T21:48:31.394Z,96701.72
2024-02-29T21:50:58.854Z,96692.94
2024-02-29T21:53:26.664Z,96699.63
2024-02-29T21:55:54.336Z,96705.22
2024-02-29T21:58:22.409Z,96696.13
2024-02-29T22:00:52.540Z,96690.38
2024-02-29T22:03:22.958Z,96689.44
2024-02-29T22:05:51.271Z,96689.28
2024-02-29T22:08:18.698Z,96685.91
2024-02-29T22:10:47.845Z,96684.13
2024-02-29T22:13:15.667Z,96685.06
2024-02-29T22:15:43.499Z,96682.53
2024-02-29T22:18:12.347Z,96675.03
2024-02-29T22:20:39.968Z,96681.06
2024-02-29T22:23:08.157Z,96669.78
2024-02-29T22:25:35.773Z,96660.69
2024-02-29T22:28:03.332Z,96658.31
2024-02-29T22:30:31.084Z,96661.63
2024-02-29T22:32:58.681Z,96658.75
2024-02-29T22:35:27.546Z,96657.16
2024-02-29T22:37:55.127Z,96657.78
2024-02-29T22:40:22.748Z,96660.81
2024-02-29T22:42:50.474Z,96652.53
2024-02-29T22:45:18.169Z,96650.44
2024-02-29T22:47:46.187Z,96648.88
2024-02-29T22:50:13.566Z,96648.38
2024-02-29T22:52:43.001Z,96644.09
2024-02-29T22:55:10.825Z,96645.50
2024-02-29T22:57:38.409Z,96643.13
2024-02-29T23:00:10.867Z,96629.13
2024-02-29T23:02:39.459Z,96634.53
2024-02-29T23:05:07.506Z,96631.34
2024-02-29T23:07:36.541Z,96621.16
2024-02-29T23:10:06.561Z,96621.16
2024-02-29T23:12:34.346Z,96609.88
2024-02-29T23:15:01.783Z,96605.56
2024-02-29T23:17:29.520Z,96597.75
2024-02-29T23:19:57.014Z,96600.78
2024-02-29T23:22:25.301Z,96605.41
2024-02-29T23:24:53.153Z,96594.09
2024-02-29T23:27:22.392Z,96589.00
2024-02-29T23:29:50.546Z,96588.22
2024-02-29T23:32:18.325Z,96581.19
2024-02-29T23:34:45.991Z,96573.41
2024-02-29T23:37:13.666Z,96577.19
2024-02-29T23:39:41.432Z,96573.53
2024-02-29T23:42:08.868Z,96584.03
2024-02-29T23:44:37.963Z,96584.34
2024-02-29T23:47:06.276Z,96583.25
2024-02-29T23:49:34.073Z,96588.47
2024-02-29T23:52:01.842Z,96582.28
2024-02-29T23:54:29.840Z,96586.88
2024-02-29T23:56:58.442Z,96595.28
2024-02-29T23:59:26.067Z,96594.50
